sensor_id;sensor_type;location;lat;lon;timestamp;temperature;humidity
26947;DHT22;14501;52.282;10.560;2022-08-25T00:00:17;17.30;99.90
26947;DHT22;14501;52.282;10.560;2022-08-25T00:02:43;17.30;99.90
26947;DHT22;14501;52.282;10.560;2022-08-25T00:05:09;17.20;99.90
26947;DHT22;14501;52.282;10.560;2022-08-25T00:07:35;17.20;99.90
26947;DHT22;14501;52.282;10.560;2022-08-25T00:10:01;17.20;99.90
26947;DHT22;14501;52.282;10.560;2022-08-25T00:12:27;17.20;99.90
26947;DHT22;14501;52.282;10.560;2022-08-25T00:14:53;17.10;99.90
26947;DHT22;14501;52.282;10.560;2022-08-25T00:17:19;17.10;99.90
26947;DHT22;14501;52.282;10.560;2022-08-25T00:19:45;17.10;99.90
26947;DHT22;14501;52.282;10.560;2022-08-25T00:22:10;17.00;99.90
26947;DHT22;14501;52.282;10.560;2022-08-25T00:24:36;17.10;99.90
26947;DHT22;14501;52.282;10.560;2022-08-25T00:27:02;17.10;99.90
26947;DHT22;14501;52.282;10.560;2022-08-25T00:29:29;17.00;99.90
26947;DHT22;14501;52.282;10.560;2022-08-25T00:31:55;17.00;99.90
26947;DHT22;14501;52.282;10.560;2022-08-25T00:34:30;17.00;99.90
26947;DHT22;14501;52.282;10.560;2022-08-25T00:36:57;16.90;99.90
26947;DHT22;14501;52.282;10.560;2022-08-25T00:39:23;16.90;99.90
26947;DHT22;14501;52.282;10.560;2022-08-25T00:41:51;16.80;99.90
26947;DHT22;14501;52.282;10.560;2022-08-25T00:44:18;16.80;99.90
26947;DHT22;14501;52.282;10.560;2022-08-25T00:46:47;16.80;99.90
26947;DHT22;14501;52.282;10.560;2022-08-25T00:49:18;16.80;99.90
26947;DHT22;14501;52.282;10.560;2022-08-25T00:52:05;16.80;99.90
26947;DHT22;14501;52.282;10.560;2022-08-25T00:54:36;16.90;99.90
26947;DHT22;14501;52.282;10.560;2022-08-25T00:57:05;17.00;99.90
26947;DHT22;14501;52.282;10.560;2022-08-25T00:59:32;17.00;99.90
26947;DHT22;14501;52.282;10.560;2022-08-25T01:01:58;17.00;99.90
26947;DHT22;14501;52.282;10.560;2022-08-25T01:04:24;17.00;99.90
26947;DHT22;14501;52.282;10.560;2022-08-25T01:06:51;17.00;99.90
26947;DHT22;14501;52.282;10.560;2022-08-25T01:09:17;17.00;99.90
26947;DHT22;14501;52.282;10.560;2022-08-25T01:11:44;17.00;99.90
26947;DHT22;14501;52.282;10.560;2022-08-25T01:14:13;17.00;99.90
26947;DHT22;14501;52.282;10.560;2022-08-25T01:16:41;17.00;99.90
26947;DHT22;14501;52.282;10.560;2022-08-25T01:19:09;17.00;99.90
26947;DHT22;14501;52.282;10.560;2022-08-25T01:21:42;17.00;99.90
26947;DHT22;14501;52.282;10.560;2022-08-25T01:24:13;16.90;99.90
26947;DHT22;14501;52.282;10.560;2022-08-25T01:26:41;17.00;99.90
26947;DHT22;14501;52.282;10.560;2022-08-25T01:29:08;17.00;99.90
26947;DHT22;14501;52.282;10.560;2022-08-25T01:31:47;17.00;99.90
26947;DHT22;14501;52.282;10.560;2022-08-25T01:34:14;17.00;99.90
26947;DHT22;14501;52.282;10.560;2022-08-25T01:36:42;17.00;99.90
26947;DHT22;14501;52.282;10.560;2022-08-25T01:39:09;17.00;99.90
26947;DHT22;14501;52.282;10.560;2022-08-25T01:44:04;17.10;99.90
26947;DHT22;14501;52.282;10.560;2022-08-25T01:46:31;17.10;99.90
26947;DHT22;14501;52.282;10.560;2022-08-25T01:48:57;17.10;99.90
26947;DHT22;14501;52.282;10.560;2022-08-25T01:51:27;17.10;99.90
26947;DHT22;14501;52.282;10.560;2022-08-25T01:53:53;17.00;99.90
26947;DHT22;14501;52.282;10.560;2022-08-25T01:56:19;17.10;99.90
26947;DHT22;14501;52.282;10.560;2022-08-25T01:58:47;17.10;99.90
26947;DHT22;14501;52.282;10.560;2022-08-25T02:01:20;17.10;99.90
26947;DHT22;14501;52.282;10.560;2022-08-25T02:03:49;17.00;99.90
26947;DHT22;14501;52.282;10.560;2022-08-25T02:06:22;17.00;99.90
26947;DHT22;14501;52.282;10.560;2022-08-25T02:08:54;17.00;99.90
26947;DHT22;14501;52.282;10.560;2022-08-25T02:11:21;17.00;99.90
26947;DHT22;14501;52.282;10.560;2022-08-25T02:13:49;17.00;99.90
26947;DHT22;14501;52.282;10.560;2022-08-25T02:16:20;17.00;99.90
26947;DHT22;14501;52.282;10.560;2022-08-25T02:18:47;17.00;99.90
26947;DHT22;14501;52.282;10.560;2022-08-25T02:21:13;16.90;99.90
26947;DHT22;14501;52.282;10.560;2022-08-25T02:23:40;16.90;99.90
26947;DHT22;14501;52.282;10.560;2022-08-25T02:26:07;16.90;99.90
26947;DHT22;14501;52.282;10.560;2022-08-25T02:28:33;16.80;99.90
26947;DHT22;14501;52.282;10.560;2022-08-25T02:30:59;16.80;99.90
26947;DHT22;14501;52.282;10.560;2022-08-25T02:33:25;16.80;99.90
26947;DHT22;14501;52.282;10.560;2022-08-25T02:35:51;16.80;99.90
26947;DHT22;14501;52.282;10.560;2022-08-25T02:38:17;16.80;99.90
26947;DHT22;14501;52.282;10.560;2022-08-25T02:40:42;16.80;99.90
26947;DHT22;14501;52.282;10.560;2022-08-25T02:43:08;16.70;99.90
26947;DHT22;14501;52.282;10.560;2022-08-25T02:45:34;16.70;99.90
26947;DHT22;14501;52.282;10.560;2022-08-25T02:48:01;16.70;99.90
26947;DHT22;14501;52.282;10.560;2022-08-25T02:50:27;16.70;99.90
26947;DHT22;14501;52.282;10.560;2022-08-25T02:52:53;16.70;99.90
26947;DHT22;14501;52.282;10.560;2022-08-25T02:55:19;16.60;99.90
26947;DHT22;14501;52.282;10.560;2022-08-25T02:57:45;16.60;99.90
26947;DHT22;14501;52.282;10.560;2022-08-25T03:00:14;16.60;99.90
26947;DHT22;14501;52.282;10.560;2022-08-25T03:02:40;16.60;99.90
26947;DHT22;14501;52.282;10.560;2022-08-25T03:05:07;16.50;99.90
26947;DHT22;14501;52.282;10.560;2022-08-25T03:07:34;16.50;99.90
26947;DHT22;14501;52.282;10.560;2022-08-25T03:10:05;16.50;99.90
26947;DHT22;14501;52.282;10.560;2022-08-25T03:12:32;16.40;99.90
26947;DHT22;14501;52.282;10.560;2022-08-25T03:14:57;16.40;99.90
26947;DHT22;14501;52.282;10.560;2022-08-25T03:17:23;16.30;99.90
26947;DHT22;14501;52.282;10.560;2022-08-25T03:19:49;16.30;99.90
26947;DHT22;14501;52.282;10.560;2022-08-25T03:22:14;16.30;99.90
26947;DHT22;14501;52.282;10.560;2022-08-25T03:24:40;16.20;99.90
26947;DHT22;14501;52.282;10.560;2022-08-25T03:27:05;16.20;99.90
26947;DHT22;14501;52.282;10.560;2022-08-25T03:29:32;16.20;99.90
26947;DHT22;14501;52.282;10.560;2022-08-25T03:31:58;16.10;99.90
26947;DHT22;14501;52.282;10.560;2022-08-25T03:34:27;16.10;99.90
26947;DHT22;14501;52.282;10.560;2022-08-25T03:36:54;16.00;99.90
26947;DHT22;14501;52.282;10.560;2022-08-25T03:39:22;16.00;99.90
26947;DHT22;14501;52.282;10.560;2022-08-25T03:41:50;16.00;99.90
26947;DHT22;14501;52.282;10.560;2022-08-25T03:44:17;16.00;99.90
26947;DHT22;14501;52.282;10.560;2022-08-25T03:46:45;15.90;99.90
26947;DHT22;14501;52.282;10.560;2022-08-25T03:49:15;15.90;99.90
26947;DHT22;14501;52.282;10.560;2022-08-25T03:51:43;15.90;99.90
26947;DHT22;14501;52.282;10.560;2022-08-25T03:54:11;15.90;99.90
26947;DHT22;14501;52.282;10.560;2022-08-25T03:56:37;15.90;99.90
26947;DHT22;14501;52.282;10.560;2022-08-25T03:59:03;15.90;99.90
26947;DHT22;14501;52.282;10.560;2022-08-25T04:01:29;15.90;99.90
26947;DHT22;14501;52.282;10.560;2022-08-25T04:03:55;15.90;99.90
26947;DHT22;14501;52.282;10.560;2022-08-25T04:06:21;15.90;99.90
26947;DHT22;14501;52.282;10.560;2022-08-25T04:08:48;15.90;99.90
26947;DHT22;14501;52.282;10.560;2022-08-25T04:11:16;15.90;99.90
26947;DHT22;14501;52.282;10.560;2022-08-25T04:13:46;15.90;99.90
26947;DHT22;14501;52.282;10.560;2022-08-25T04:16:14;15.90;99.90
26947;DHT22;14501;52.282;10.560;2022-08-25T04:18:40;16.00;99.90
26947;DHT22;14501;52.282;10.560;2022-08-25T04:21:07;16.00;99.90
26947;DHT22;14501;52.282;10.560;2022-08-25T04:23:38;16.00;99.90
26947;DHT22;14501;52.282;10.560;2022-08-25T04:26:17;16.00;99.90
26947;DHT22;14501;52.282;10.560;2022-08-25T04:28:44;16.00;99.90
26947;DHT22;14501;52.282;10.560;2022-08-25T04:31:12;16.00;99.90
26947;DHT22;14501;52.282;10.560;2022-08-25T04:33:41;16.00;99.90
26947;DHT22;14501;52.282;10.560;2022-08-25T04:36:08;16.00;99.90
26947;DHT22;14501;52.282;10.560;2022-08-25T04:38:36;16.10;99.90
26947;DHT22;14501;52.282;10.560;2022-08-25T04:41:04;16.10;99.90
26947;DHT22;14501;52.282;10.560;2022-08-25T04:43:32;16.20;99.90
26947;DHT22;14501;52.282;10.560;2022-08-25T04:45:57;16.20;99.90
26947;DHT22;14501;52.282;10.560;2022-08-25T04:48:24;16.20;99.90
26947;DHT22;14501;52.282;10.560;2022-08-25T04:50:50;16.30;99.90
26947;DHT22;14501;52.282;10.560;2022-08-25T04:53:17;16.30;99.90
26947;DHT22;14501;52.282;10.560;2022-08-25T04:55:44;16.30;99.90
26947;DHT22;14501;52.282;10.560;2022-08-25T04:58:11;16.40;99.90
26947;DHT22;14501;52.282;10.560;2022-08-25T05:00:38;16.50;99.90
26947;DHT22;14501;52.282;10.560;2022-08-25T05:03:05;17.50;99.90
26947;DHT22;14501;52.282;10.560;2022-08-25T05:05:31;16.60;99.90
26947;DHT22;14501;52.282;10.560;2022-08-25T05:07:59;16.80;99.90
26947;DHT22;14501;52.282;10.560;2022-08-25T05:10:25;16.80;99.90
26947;DHT22;14501;52.282;10.560;2022-08-25T05:12:51;17.00;99.90
26947;DHT22;14501;52.282;10.560;2022-08-25T05:15:17;17.10;99.90
26947;DHT22;14501;52.282;10.560;2022-08-25T05:18:01;17.30;99.90
26947;DHT22;14501;52.282;10.560;2022-08-25T05:20:27;17.40;99.90
26947;DHT22;14501;52.282;10.560;2022-08-25T05:22:56;17.60;99.90
26947;DHT22;14501;52.282;10.560;2022-08-25T05:25:22;17.70;99.90
26947;DHT22;14501;52.282;10.560;2022-08-25T05:27:48;17.90;99.90
26947;DHT22;14501;52.282;10.560;2022-08-25T05:30:13;18.00;99.90
26947;DHT22;14501;52.282;10.560;2022-08-25T05:32:39;18.10;99.90
26947;DHT22;14501;52.282;10.560;2022-08-25T05:35:05;18.30;99.90
26947;DHT22;14501;52.282;10.560;2022-08-25T05:37:32;18.40;99.90
26947;DHT22;14501;52.282;10.560;2022-08-25T05:39:58;18.50;99.90
26947;DHT22;14501;52.282;10.560;2022-08-25T05:42:25;18.60;99.90
26947;DHT22;14501;52.282;10.560;2022-08-25T05:44:53;18.80;99.90
26947;DHT22;14501;52.282;10.560;2022-08-25T05:47:18;18.90;99.90
26947;DHT22;14501;52.282;10.560;2022-08-25T05:49:44;19.10;99.90
26947;DHT22;14501;52.282;10.560;2022-08-25T05:52:09;19.20;99.90
26947;DHT22;14501;52.282;10.560;2022-08-25T05:54:35;19.50;99.90
26947;DHT22;14501;52.282;10.560;2022-08-25T05:57:01;19.50;99.90
26947;DHT22;14501;52.282;10.560;2022-08-25T05:59:26;19.70;99.90
26947;DHT22;14501;52.282;10.560;2022-08-25T06:01:54;20.00;99.90
26947;DHT22;14501;52.282;10.560;2022-08-25T06:04:38;20.70;99.90
26947;DHT22;14501;52.282;10.560;2022-08-25T06:07:03;22.60;99.90
26947;DHT22;14501;52.282;10.560;2022-08-25T06:09:29;24.50;99.90
26947;DHT22;14501;52.282;10.560;2022-08-25T06:11:55;26.50;99.90
26947;DHT22;14501;52.282;10.560;2022-08-25T06:14:20;28.20;99.90
26947;DHT22;14501;52.282;10.560;2022-08-25T06:16:46;29.70;99.90
26947;DHT22;14501;52.282;10.560;2022-08-25T06:19:15;30.80;99.90
26947;DHT22;14501;52.282;10.560;2022-08-25T06:21:41;31.40;99.90
26947;DHT22;14501;52.282;10.560;2022-08-25T06:24:08;29.80;99.90
26947;DHT22;14501;52.282;10.560;2022-08-25T06:26:35;29.60;99.90
26947;DHT22;14501;52.282;10.560;2022-08-25T06:29:01;28.60;99.90
26947;DHT22;14501;52.282;10.560;2022-08-25T06:31:27;27.80;99.90
26947;DHT22;14501;52.282;10.560;2022-08-25T06:33:52;27.20;99.90
26947;DHT22;14501;52.282;10.560;2022-08-25T06:36:18;26.60;99.90
26947;DHT22;14501;52.282;10.560;2022-08-25T06:38:44;26.20;99.90
26947;DHT22;14501;52.282;10.560;2022-08-25T06:41:11;25.90;99.90
26947;DHT22;14501;52.282;10.560;2022-08-25T06:43:38;25.60;99.90
26947;DHT22;14501;52.282;10.560;2022-08-25T06:46:13;25.50;99.90
26947;DHT22;14501;52.282;10.560;2022-08-25T06:48:39;25.50;99.90
26947;DHT22;14501;52.282;10.560;2022-08-25T06:51:11;25.50;99.90
26947;DHT22;14501;52.282;10.560;2022-08-25T06:53:37;25.40;99.90
26947;DHT22;14501;52.282;10.560;2022-08-25T06:56:04;25.50;99.90
26947;DHT22;14501;52.282;10.560;2022-08-25T06:58:30;25.50;99.90
26947;DHT22;14501;52.282;10.560;2022-08-25T07:00:56;25.40;99.90
26947;DHT22;14501;52.282;10.560;2022-08-25T07:03:22;25.50;99.90
26947;DHT22;14501;52.282;10.560;2022-08-25T07:05:52;25.60;99.90
26947;DHT22;14501;52.282;10.560;2022-08-25T07:08:18;25.60;99.90
26947;DHT22;14501;52.282;10.560;2022-08-25T07:10:44;25.50;99.90
26947;DHT22;14501;52.282;10.560;2022-08-25T07:13:09;25.60;99.90
26947;DHT22;14501;52.282;10.560;2022-08-25T07:15:40;25.80;99.90
26947;DHT22;14501;52.282;10.560;2022-08-25T07:18:07;26.00;99.90
26947;DHT22;14501;52.282;10.560;2022-08-25T07:20:34;26.10;99.90
26947;DHT22;14501;52.282;10.560;2022-08-25T07:23:00;26.20;99.90
26947;DHT22;14501;52.282;10.560;2022-08-25T07:25:26;26.40;99.90
26947;DHT22;14501;52.282;10.560;2022-08-25T07:27:52;26.70;99.90
26947;DHT22;14501;52.282;10.560;2022-08-25T07:30:18;27.10;99.90
26947;DHT22;14501;52.282;10.560;2022-08-25T07:32:44;27.30;99.90
26947;DHT22;14501;52.282;10.560;2022-08-25T07:35:10;28.00;99.90
26947;DHT22;14501;52.282;10.560;2022-08-25T07:37:49;28.60;99.90
26947;DHT22;14501;52.282;10.560;2022-08-25T07:40:24;30.80;99.90
26947;DHT22;14501;52.282;10.560;2022-08-25T07:42:55;33.50;99.90
26947;DHT22;14501;52.282;10.560;2022-08-25T07:45:26;35.30;99.90
26947;DHT22;14501;52.282;10.560;2022-08-25T07:48:04;37.30;97.20
26947;DHT22;14501;52.282;10.560;2022-08-25T07:50:31;38.50;93.40
26947;DHT22;14501;52.282;10.560;2022-08-25T07:52:57;40.00;90.80
26947;DHT22;14501;52.282;10.560;2022-08-25T07:55:25;41.00;86.30
26947;DHT22;14501;52.282;10.560;2022-08-25T07:57:52;41.80;82.10
26947;DHT22;14501;52.282;10.560;2022-08-25T08:00:18;42.50;79.30
26947;DHT22;14501;52.282;10.560;2022-08-25T08:02:45;42.70;77.10
26947;DHT22;14501;52.282;10.560;2022-08-25T08:05:12;43.00;76.30
26947;DHT22;14501;52.282;10.560;2022-08-25T08:07:38;43.30;73.40
26947;DHT22;14501;52.282;10.560;2022-08-25T08:10:06;42.90;72.80
26947;DHT22;14501;52.282;10.560;2022-08-25T08:12:33;42.90;72.90
26947;DHT22;14501;52.282;10.560;2022-08-25T08:14:59;42.80;72.90
26947;DHT22;14501;52.282;10.560;2022-08-25T08:17:25;42.90;72.20
26947;DHT22;14501;52.282;10.560;2022-08-25T08:19:51;43.20;71.20
26947;DHT22;14501;52.282;10.560;2022-08-25T08:22:17;43.50;70.90
26947;DHT22;14501;52.282;10.560;2022-08-25T08:24:44;44.10;70.10
26947;DHT22;14501;52.282;10.560;2022-08-25T08:27:12;43.80;69.40
26947;DHT22;14501;52.282;10.560;2022-08-25T08:29:39;43.90;70.60
26947;DHT22;14501;52.282;10.560;2022-08-25T08:32:07;44.10;68.30
26947;DHT22;14501;52.282;10.560;2022-08-25T08:34:33;44.40;68.30
26947;DHT22;14501;52.282;10.560;2022-08-25T08:37:00;44.40;67.30
26947;DHT22;14501;52.282;10.560;2022-08-25T08:39:27;44.70;67.80
26947;DHT22;14501;52.282;10.560;2022-08-25T08:45:31;43.60;66.60
26947;DHT22;14501;52.282;10.560;2022-08-25T08:51:25;40.50;71.50
26947;DHT22;14501;52.282;10.560;2022-08-25T08:54:09;40.40;72.70
26947;DHT22;14501;52.282;10.560;2022-08-25T08:56:40;38.90;73.60
26947;DHT22;14501;52.282;10.560;2022-08-25T08:59:21;36.50;79.10
26947;DHT22;14501;52.282;10.560;2022-08-25T09:01:50;35.70;82.70
26947;DHT22;14501;52.282;10.560;2022-08-25T09:07:18;37.70;79.00
26947;DHT22;14501;52.282;10.560;2022-08-25T09:09:46;38.40;77.80
26947;DHT22;14501;52.282;10.560;2022-08-25T09:18:04;37.50;78.40
26947;DHT22;14501;52.282;10.560;2022-08-25T09:23:31;39.30;77.40
26947;DHT22;14501;52.282;10.560;2022-08-25T09:26:21;41.00;72.80
26947;DHT22;14501;52.282;10.560;2022-08-25T09:28:53;42.10;71.30
26947;DHT22;14501;52.282;10.560;2022-08-25T09:31:32;40.90;72.40
26947;DHT22;14501;52.282;10.560;2022-08-25T09:34:01;40.40;72.80
26947;DHT22;14501;52.282;10.560;2022-08-25T09:36:28;40.30;73.30
26947;DHT22;14501;52.282;10.560;2022-08-25T09:38:53;39.00;75.30
26947;DHT22;14501;52.282;10.560;2022-08-25T09:41:46;39.30;76.20
26947;DHT22;14501;52.282;10.560;2022-08-25T09:44:31;40.70;74.10
26947;DHT22;14501;52.282;10.560;2022-08-25T09:49:41;41.20;72.20
26947;DHT22;14501;52.282;10.560;2022-08-25T09:54:52;40.00;73.30
26947;DHT22;14501;52.282;10.560;2022-08-25T10:00:23;39.30;74.80
26947;DHT22;14501;52.282;10.560;2022-08-25T10:03:12;38.40;76.10
26947;DHT22;14501;52.282;10.560;2022-08-25T10:06:03;37.00;78.90
26947;DHT22;14501;52.282;10.560;2022-08-25T10:08:52;35.80;83.20
26947;DHT22;14501;52.282;10.560;2022-08-25T10:11:48;37.20;80.40
26947;DHT22;14501;52.282;10.560;2022-08-25T10:14:15;38.30;78.60
26947;DHT22;14501;52.282;10.560;2022-08-25T10:16:41;39.90;75.40
26947;DHT22;14501;52.282;10.560;2022-08-25T10:19:27;40.40;73.30
26947;DHT22;14501;52.282;10.560;2022-08-25T10:22:09;41.00;72.40
26947;DHT22;14501;52.282;10.560;2022-08-25T10:24:36;40.90;72.00
26947;DHT22;14501;52.282;10.560;2022-08-25T10:30:22;35.80;79.20
26947;DHT22;14501;52.282;10.560;2022-08-25T10:38:30;33.10;88.40
26947;DHT22;14501;52.282;10.560;2022-08-25T10:49:47;30.70;92.20
26947;DHT22;14501;52.282;10.560;2022-08-25T10:52:48;31.00;92.30
26947;DHT22;14501;52.282;10.560;2022-08-25T10:55:15;31.10;91.90
26947;DHT22;14501;52.282;10.560;2022-08-25T10:57:59;30.90;91.50
26947;DHT22;14501;52.282;10.560;2022-08-25T11:00:33;30.60;92.70
26947;DHT22;14501;52.282;10.560;2022-08-25T11:06:16;30.00;93.60
26947;DHT22;14501;52.282;10.560;2022-08-25T11:08:49;30.20;94.00
26947;DHT22;14501;52.282;10.560;2022-08-25T11:12:02;30.90;93.20
26947;DHT22;14501;52.282;10.560;2022-08-25T11:14:30;31.60;92.30
26947;DHT22;14501;52.282;10.560;2022-08-25T11:17:03;31.90;91.30
26947;DHT22;14501;52.282;10.560;2022-08-25T11:19:51;32.00;91.10
26947;DHT22;14501;52.282;10.560;2022-08-25T11:22:34;32.10;91.10
26947;DHT22;14501;52.282;10.560;2022-08-25T11:25:22;32.00;91.10
26947;DHT22;14501;52.282;10.560;2022-08-25T11:28:02;32.20;90.90
26947;DHT22;14501;52.282;10.560;2022-08-25T11:30:31;32.20;90.60
26947;DHT22;14501;52.282;10.560;2022-08-25T11:32:57;32.20;90.40
26947;DHT22;14501;52.282;10.560;2022-08-25T11:35:34;31.90;90.20
26947;DHT22;14501;52.282;10.560;2022-08-25T11:52:03;31.30;92.40
26947;DHT22;14501;52.282;10.560;2022-08-25T11:54:36;31.70;91.80
26947;DHT22;14501;52.282;10.560;2022-08-25T12:02:40;31.80;91.20
26947;DHT22;14501;52.282;10.560;2022-08-25T12:10:14;30.90;92.10
26947;DHT22;14501;52.282;10.560;2022-08-25T12:23:43;29.80;94.40
26947;DHT22;14501;52.282;10.560;2022-08-25T12:37:10;29.70;94.60
26947;DHT22;14501;52.282;10.560;2022-08-25T12:42:36;30.50;93.80
26947;DHT22;14501;52.282;10.560;2022-08-25T12:47:49;30.80;92.70
26947;DHT22;14501;52.282;10.560;2022-08-25T12:50:38;31.20;91.70
26947;DHT22;14501;52.282;10.560;2022-08-25T12:55:51;31.70;91.60
26947;DHT22;14501;52.282;10.560;2022-08-25T12:58:18;31.60;91.20
26947;DHT22;14501;52.282;10.560;2022-08-25T13:07:06;30.30;92.50
26947;DHT22;14501;52.282;10.560;2022-08-25T13:12:39;30.10;93.20
26947;DHT22;14501;52.282;10.560;2022-08-25T13:15:05;30.40;92.80
26947;DHT22;14501;52.282;10.560;2022-08-25T13:17:36;30.60;92.50
26947;DHT22;14501;52.282;10.560;2022-08-25T13:20:24;30.60;92.70
26947;DHT22;14501;52.282;10.560;2022-08-25T13:22:51;30.60;93.10
26947;DHT22;14501;52.282;10.560;2022-08-25T13:25:22;30.50;92.50
26947;DHT22;14501;52.282;10.560;2022-08-25T13:27:52;30.40;93.30
26947;DHT22;14501;52.282;10.560;2022-08-25T13:30:39;30.10;93.10
26947;DHT22;14501;52.282;10.560;2022-08-25T13:33:19;30.10;92.60
26947;DHT22;14501;52.282;10.560;2022-08-25T13:35:55;30.30;93.00
26947;DHT22;14501;52.282;10.560;2022-08-25T13:38:41;30.50;93.10
26947;DHT22;14501;52.282;10.560;2022-08-25T13:41:09;30.50;93.10
26947;DHT22;14501;52.282;10.560;2022-08-25T13:43:36;30.70;93.20
26947;DHT22;14501;52.282;10.560;2022-08-25T13:46:03;30.70;92.20
26947;DHT22;14501;52.282;10.560;2022-08-25T13:48:35;30.70;92.80
26947;DHT22;14501;52.282;10.560;2022-08-25T13:51:25;30.70;92.50
26947;DHT22;14501;52.282;10.560;2022-08-25T13:54:00;30.60;92.50
26947;DHT22;14501;52.282;10.560;2022-08-25T13:58:57;30.50;91.90
26947;DHT22;14501;52.282;10.560;2022-08-25T14:01:28;30.40;92.50
26947;DHT22;14501;52.282;10.560;2022-08-25T14:04:05;30.40;92.40
26947;DHT22;14501;52.282;10.560;2022-08-25T14:06:41;30.40;92.30
26947;DHT22;14501;52.282;10.560;2022-08-25T14:09:16;30.20;92.70
26947;DHT22;14501;52.282;10.560;2022-08-25T14:11:45;30.10;92.50
26947;DHT22;14501;52.282;10.560;2022-08-25T14:16:52;30.00;92.80
26947;DHT22;14501;52.282;10.560;2022-08-25T14:19:21;29.90;92.60
26947;DHT22;14501;52.282;10.560;2022-08-25T14:21:48;30.10;92.80
26947;DHT22;14501;52.282;10.560;2022-08-25T14:24:19;30.20;92.00
26947;DHT22;14501;52.282;10.560;2022-08-25T14:26:45;30.20;92.30
26947;DHT22;14501;52.282;10.560;2022-08-25T14:29:12;30.10;92.40
26947;DHT22;14501;52.282;10.560;2022-08-25T14:31:40;29.90;93.00
26947;DHT22;14501;52.282;10.560;2022-08-25T14:34:20;30.20;93.10
26947;DHT22;14501;52.282;10.560;2022-08-25T14:36:47;30.20;93.10
26947;DHT22;14501;52.282;10.560;2022-08-25T14:39:13;30.40;92.10
26947;DHT22;14501;52.282;10.560;2022-08-25T14:41:40;30.60;92.20
26947;DHT22;14501;52.282;10.560;2022-08-25T14:44:08;30.40;91.90
26947;DHT22;14501;52.282;10.560;2022-08-25T14:46:37;30.40;92.10
26947;DHT22;14501;52.282;10.560;2022-08-25T14:49:08;30.20;92.60
26947;DHT22;14501;52.282;10.560;2022-08-25T14:51:34;30.20;93.10
26947;DHT22;14501;52.282;10.560;2022-08-25T14:54:06;30.00;93.40
26947;DHT22;14501;52.282;10.560;2022-08-25T14:56:32;30.00;93.60
26947;DHT22;14501;52.282;10.560;2022-08-25T14:58:58;30.00;93.10
26947;DHT22;14501;52.282;10.560;2022-08-25T15:01:25;29.90;93.10
26947;DHT22;14501;52.282;10.560;2022-08-25T15:03:55;29.80;93.40
26947;DHT22;14501;52.282;10.560;2022-08-25T15:06:21;29.60;93.50
26947;DHT22;14501;52.282;10.560;2022-08-25T15:08:47;29.30;94.10
26947;DHT22;14501;52.282;10.560;2022-08-25T15:11:31;29.10;94.50
26947;DHT22;14501;52.282;10.560;2022-08-25T15:13:57;28.90;94.40
26947;DHT22;14501;52.282;10.560;2022-08-25T15:16:55;28.80;94.70
26947;DHT22;14501;52.282;10.560;2022-08-25T15:19:24;28.70;94.90
26947;DHT22;14501;52.282;10.560;2022-08-25T15:21:51;28.70;94.90
26947;DHT22;14501;52.282;10.560;2022-08-25T15:24:19;28.70;95.00
26947;DHT22;14501;52.282;10.560;2022-08-25T15:29:11;28.90;94.70
26947;DHT22;14501;52.282;10.560;2022-08-25T15:31:37;29.00;94.50
26947;DHT22;14501;52.282;10.560;2022-08-25T15:34:05;29.20;94.60
26947;DHT22;14501;52.282;10.560;2022-08-25T15:36:32;29.40;94.60
26947;DHT22;14501;52.282;10.560;2022-08-25T15:38:58;29.40;94.80
26947;DHT22;14501;52.282;10.560;2022-08-25T15:41:23;29.50;94.50
26947;DHT22;14501;52.282;10.560;2022-08-25T15:43:49;29.60;94.50
26947;DHT22;14501;52.282;10.560;2022-08-25T15:46:17;29.60;94.20
26947;DHT22;14501;52.282;10.560;2022-08-25T15:48:45;29.60;93.80
26947;DHT22;14501;52.282;10.560;2022-08-25T15:51:11;29.60;94.40
26947;DHT22;14501;52.282;10.560;2022-08-25T15:53:37;29.50;94.50
26947;DHT22;14501;52.282;10.560;2022-08-25T15:56:04;29.40;94.30
26947;DHT22;14501;52.282;10.560;2022-08-25T15:58:31;29.40;94.70
26947;DHT22;14501;52.282;10.560;2022-08-25T16:00:56;29.30;94.20
26947;DHT22;14501;52.282;10.560;2022-08-25T16:03:22;29.20;94.60
26947;DHT22;14501;52.282;10.560;2022-08-25T16:05:47;29.20;94.50
26947;DHT22;14501;52.282;10.560;2022-08-25T16:08:13;29.10;94.50
26947;DHT22;14501;52.282;10.560;2022-08-25T16:10:41;29.00;94.30
26947;DHT22;14501;52.282;10.560;2022-08-25T16:13:07;29.00;94.40
26947;DHT22;14501;52.282;10.560;2022-08-25T16:15:34;28.90;94.50
26947;DHT22;14501;52.282;10.560;2022-08-25T16:18:00;28.90;94.80
26947;DHT22;14501;52.282;10.560;2022-08-25T16:20:27;28.80;95.10
26947;DHT22;14501;52.282;10.560;2022-08-25T16:22:53;28.80;95.40
26947;DHT22;14501;52.282;10.560;2022-08-25T16:25:20;28.70;95.60
26947;DHT22;14501;52.282;10.560;2022-08-25T16:27:46;28.70;95.70
26947;DHT22;14501;52.282;10.560;2022-08-25T16:30:12;28.70;95.30
26947;DHT22;14501;52.282;10.560;2022-08-25T16:32:39;28.60;95.50
26947;DHT22;14501;52.282;10.560;2022-08-25T16:35:05;28.50;95.70
26947;DHT22;14501;52.282;10.560;2022-08-25T16:37:32;28.40;96.00
26947;DHT22;14501;52.282;10.560;2022-08-25T16:39:58;28.30;96.10
26947;DHT22;14501;52.282;10.560;2022-08-25T16:42:24;28.20;96.80
26947;DHT22;14501;52.282;10.560;2022-08-25T16:44:50;28.20;96.80
26947;DHT22;14501;52.282;10.560;2022-08-25T16:47:16;28.10;97.30
26947;DHT22;14501;52.282;10.560;2022-08-25T16:49:42;28.00;97.70
26947;DHT22;14501;52.282;10.560;2022-08-25T16:52:08;28.00;98.10
26947;DHT22;14501;52.282;10.560;2022-08-25T16:54:52;28.00;98.20
26947;DHT22;14501;52.282;10.560;2022-08-25T16:57:41;27.90;98.40
26947;DHT22;14501;52.282;10.560;2022-08-25T17:00:10;27.80;98.80
26947;DHT22;14501;52.282;10.560;2022-08-25T17:02:37;27.70;98.90
26947;DHT22;14501;52.282;10.560;2022-08-25T17:05:04;27.70;99.40
26947;DHT22;14501;52.282;10.560;2022-08-25T17:07:31;27.60;99.90
26947;DHT22;14501;52.282;10.560;2022-08-25T17:09:56;27.50;99.90
26947;DHT22;14501;52.282;10.560;2022-08-25T17:12:26;27.50;99.90
26947;DHT22;14501;52.282;10.560;2022-08-25T17:14:52;27.40;99.90
26947;DHT22;14501;52.282;10.560;2022-08-25T17:17:18;27.40;99.90
26947;DHT22;14501;52.282;10.560;2022-08-25T17:19:45;27.30;99.90
26947;DHT22;14501;52.282;10.560;2022-08-25T17:22:11;27.20;99.90
26947;DHT22;14501;52.282;10.560;2022-08-25T17:24:41;27.10;99.90
26947;DHT22;14501;52.282;10.560;2022-08-25T17:27:07;27.00;99.90
26947;DHT22;14501;52.282;10.560;2022-08-25T17:29:33;27.00;99.90